createdAt,value
2024-05-09T00:00:12.728Z,37.09
2024-05-09T00:01:09.066Z,37.13
2024-05-09T00:02:08.140Z,37.07
2024-05-09T00:03:09.143Z,37.13
2024-05-09T00:04:08.090Z,37.10
2024-05-09T00:05:08.130Z,37.07
2024-05-09T00:06:08.252Z,37.09
2024-05-09T00:07:08.057Z,37.10
2024-05-09T00:08:08.069Z,37.10
2024-05-09T00:09:08.059Z,37.07
2024-05-09T00:10:11.828Z,37.08
2024-05-09T00:11:09.213Z,37.06
2024-05-09T00:12:08.424Z,37.09
2024-05-09T00:13:08.562Z,37.10
2024-05-09T00:14:08.140Z,37.06
2024-05-09T00:15:08.120Z,37.10
2024-05-09T00:16:08.127Z,37.08
2024-05-09T00:17:08.134Z,37.09
2024-05-09T00:18:08.633Z,37.08
2024-05-09T00:19:08.229Z,37.10
2024-05-09T00:20:14.409Z,37.08
2024-05-09T00:21:09.346Z,37.11
2024-05-09T00:22:08.131Z,37.10
2024-05-09T00:23:08.420Z,37.11
2024-05-09T00:24:08.134Z,37.05
2024-05-09T00:25:08.150Z,37.07
2024-05-09T00:26:08.242Z,37.08
2024-05-09T00:27:08.940Z,37.04
2024-05-09T00:28:08.162Z,37.10
2024-05-09T00:29:08.151Z,37.06
2024-05-09T00:30:11.579Z,37.03
2024-05-09T00:31:09.152Z,37.09
2024-05-09T00:32:08.287Z,37.10
2024-05-09T00:33:09.773Z,37.10
2024-05-09T00:34:08.349Z,37.04
2024-05-09T00:35:08.225Z,37.05
2024-05-09T00:36:08.158Z,37.06
2024-05-09T00:37:08.166Z,37.05
2024-05-09T00:38:08.358Z,37.03
2024-05-09T00:39:08.156Z,37.06
2024-05-09T00:40:15.342Z,37.04
2024-05-09T00:41:09.198Z,37.08
2024-05-09T00:42:08.175Z,37.05
2024-05-09T00:43:08.207Z,37.06
2024-05-09T00:44:08.191Z,37.08
2024-05-09T00:45:08.171Z,37.05
2024-05-09T00:46:08.177Z,37.04
2024-05-09T00:47:08.342Z,37.06
2024-05-09T00:48:09.634Z,37.05
2024-05-09T00:49:08.242Z,37.04
2024-05-09T00:50:12.890Z,37.02
2024-05-09T00:51:09.225Z,37.06
2024-05-09T00:52:08.184Z,37.02
2024-05-09T00:53:08.260Z,37.06
2024-05-09T00:54:08.193Z,37.03
2024-05-09T00:55:08.203Z,37.01
2024-05-09T00:56:08.241Z,37.01
2024-05-09T00:57:08.208Z,36.99
2024-05-09T00:58:08.187Z,37.01
2024-05-09T00:59:08.264Z,36.98
2024-05-09T01:00:22.132Z,37.01
2024-05-09T01:01:09.234Z,37.02
2024-05-09T01:02:08.246Z,36.95
2024-05-09T01:03:09.595Z,37.01
2024-05-09T01:04:08.308Z,37.02
2024-05-09T01:05:08.297Z,37.02
2024-05-09T01:06:08.205Z,37.03
2024-05-09T01:07:08.215Z,37.02
2024-05-09T01:08:08.795Z,36.98
2024-05-09T01:09:08.216Z,36.99
2024-05-09T01:10:14.111Z,36.99
2024-05-09T01:11:09.263Z,36.98
2024-05-09T01:12:08.433Z,37.00
2024-05-09T01:13:08.227Z,36.97
2024-05-09T01:14:08.251Z,36.95
2024-05-09T01:15:08.226Z,36.94
2024-05-09T01:16:08.240Z,36.97
2024-05-09T01:17:08.333Z,36.97
2024-05-09T01:18:08.300Z,36.96
2024-05-09T01:19:08.336Z,36.95
2024-05-09T01:20:10.916Z,36.92
2024-05-09T01:21:09.259Z,36.97
2024-05-09T01:22:08.251Z,36.96
2024-05-09T01:23:08.342Z,36.96
2024-05-09T01:24:08.238Z,36.96
2024-05-09T01:25:08.246Z,36.97
2024-05-09T01:26:08.265Z,36.93
2024-05-09T01:27:08.244Z,36.96
2024-05-09T01:28:08.252Z,36.95
2024-05-09T01:29:08.285Z,36.95
2024-05-09T01:30:11.915Z,36.97
2024-05-09T01:31:09.252Z,36.95
2024-05-09T01:32:08.376Z,36.94
2024-05-09T01:33:10.238Z,36.94
2024-05-09T01:34:08.258Z,36.94
2024-05-09T01:35:08.269Z,36.95
2024-05-09T01:36:08.272Z,36.91
2024-05-09T01:37:08.246Z,36.91
2024-05-09T01:38:08.296Z,36.92
2024-05-09T01:39:08.244Z,36.91
2024-05-09T01:40:12.268Z,36.94
2024-05-09T01:41:09.332Z,36.93
2024-05-09T01:42:08.263Z,36.96
2024-05-09T01:43:09.463Z,36.93
2024-05-09T01:44:08.328Z,36.92
2024-05-09T01:45:08.251Z,36.94
2024-05-09T01:46:08.262Z,36.92
2024-05-09T01:47:08.411Z,36.92
2024-05-09T01:48:08.576Z,36.92
2024-05-09T01:49:08.433Z,36.93
2024-05-09T01:50:10.791Z,36.90
2024-05-09T01:51:08.844Z,36.87
2024-05-09T01:52:08.642Z,36.88
2024-05-09T01:53:08.841Z,36.93
2024-05-09T01:54:08.758Z,36.91
2024-05-09T01:55:08.801Z,36.90
2024-05-09T01:56:08.885Z,36.89
2024-05-09T01:57:08.917Z,36.89
2024-05-09T01:58:09.112Z,36.88
2024-05-09T01:59:09.073Z,36.89
2024-05-09T02:00:10.320Z,36.90
2024-05-09T02:01:09.173Z,36.90
2024-05-09T02:02:09.323Z,36.91
2024-05-09T02:03:09.691Z,36.88
2024-05-09T02:04:09.418Z,36.87
2024-05-09T02:05:09.490Z,36.87
2024-05-09T02:06:09.505Z,36.90
2024-05-09T02:07:09.331Z,36.86
2024-05-09T02:08:09.351Z,36.88
2024-05-09T02:09:09.346Z,36.87
2024-05-09T02:10:16.192Z,36.85
2024-05-09T02:11:10.448Z,36.84
2024-05-09T02:12:09.521Z,36.82
2024-05-09T02:13:09.423Z,36.85
2024-05-09T02:14:09.402Z,36.85
2024-05-09T02:15:09.345Z,36.83
2024-05-09T02:16:09.348Z,36.84
2024-05-09T02:17:09.464Z,36.85
2024-05-09T02:18:09.510Z,36.86
2024-05-09T02:19:09.419Z,36.84
2024-05-09T02:20:13.263Z,36.81
2024-05-09T02:21:10.418Z,36.85
2024-05-09T02:22:09.358Z,36.84
2024-05-09T02:23:09.655Z,36.86
2024-05-09T02:24:09.362Z,36.85
2024-05-09T02:25:09.361Z,36.82
2024-05-09T02:26:09.400Z,36.83
2024-05-09T02:27:09.378Z,36.86
2024-05-09T02:28:09.355Z,36.85
2024-05-09T02:29:09.382Z,36.86
2024-05-09T02:30:18.541Z,36.85
2024-05-09T02:31:10.378Z,36.82
2024-05-09T02:32:09.464Z,36.81
2024-05-09T02:33:10.826Z,36.82
2024-05-09T02:34:09.452Z,36.81
2024-05-09T02:35:09.393Z,36.83
2024-05-09T02:36:09.369Z,36.78
2024-05-09T02:37:09.385Z,36.84
2024-05-09T02:38:09.539Z,36.82
2024-05-09T02:39:09.387Z,36.80
2024-05-09T02:40:14.373Z,36.79
2024-05-09T02:41:10.499Z,36.79
2024-05-09T02:42:09.397Z,36.78
2024-05-09T02:43:10.917Z,36.81
2024-05-09T02:44:09.427Z,36.78
2024-05-09T02:45:09.399Z,36.78
2024-05-09T02:46:09.388Z,36.79
2024-05-09T02:47:09.518Z,36.76
2024-05-09T02:48:09.469Z,36.75
2024-05-09T02:49:09.576Z,36.77
2024-05-09T02:50:13.272Z,36.77
2024-05-09T02:51:09.571Z,36.76
2024-05-09T02:52:09.466Z,36.76
2024-05-09T02:53:10.161Z,36.74
2024-05-09T02:54:09.458Z,36.75
2024-05-09T02:55:09.458Z,36.76
2024-05-09T02:56:09.527Z,36.75
2024-05-09T02:57:09.476Z,36.74
2024-05-09T02:58:09.596Z,36.78
2024-05-09T02:59:09.495Z,36.74
2024-05-09T03:00:15.228Z,36.79
2024-05-09T03:01:10.494Z,36.79
2024-05-09T03:02:09.576Z,36.76
2024-05-09T03:03:11.286Z,36.77
2024-05-09T03:04:09.547Z,36.78
2024-05-09T03:05:09.478Z,36.76
2024-05-09T03:06:09.477Z,36.78
2024-05-09T03:07:09.491Z,36.74
2024-05-09T03:08:09.709Z,36.70
2024-05-09T03:09:09.491Z,36.75
2024-05-09T03:10:18.222Z,36.72
2024-05-09T03:11:10.642Z,36.74
2024-05-09T03:12:09.586Z,36.75
2024-05-09T03:13:09.480Z,36.75
2024-05-09T03:14:09.529Z,36.73
2024-05-09T03:15:09.490Z,36.75
2024-05-09T03:16:09.506Z,36.72
2024-05-09T03:17:09.561Z,36.71
2024-05-09T03:18:09.882Z,36.70
2024-05-09T03:19:09.617Z,36.69
2024-05-09T03:20:16.906Z,36.67
2024-05-09T03:21:10.596Z,36.70
2024-05-09T03:22:09.496Z,36.75
2024-05-09T03:23:10.387Z,36.70
2024-05-09T03:24:09.700Z,36.69
2024-05-09T03:25:09.513Z,36.73
2024-05-09T03:26:09.576Z,36.72
2024-05-09T03:27:09.513Z,36.68
2024-05-09T03:28:09.509Z,36.70
2024-05-09T03:29:09.569Z,36.71
2024-05-09T03:30:10.026Z,36.71
2024-05-09T03:31:09.559Z,36.70
2024-05-09T03:32:09.578Z,36.71
2024-05-09T03:33:09.834Z,36.73
2024-05-09T03:34:09.693Z,36.69
2024-05-09T03:35:09.759Z,36.69
2024-05-09T03:36:11.188Z,36.69
2024-05-09T03:37:09.786Z,36.71
2024-05-09T03:38:10.025Z,36.72
2024-05-09T03:39:09.782Z,36.70
2024-05-09T03:40:17.514Z,36.68
2024-05-09T03:41:10.810Z,36.69
2024-05-09T03:42:09.789Z,36.67
2024-05-09T03:43:09.788Z,36.68
2024-05-09T03:44:09.864Z,36.66
2024-05-09T03:45:09.787Z,36.65
2024-05-09T03:46:09.797Z,36.65
2024-05-09T03:47:09.827Z,36.66
2024-05-09T03:48:10.140Z,36.66
2024-05-09T03:49:09.909Z,36.66
2024-05-09T03:50:18.026Z,36.63
2024-05-09T03:51:10.922Z,36.65
2024-05-09T03:52:09.814Z,36.69
2024-05-09T03:53:09.862Z,36.65
2024-05-09T03:54:09.802Z,36.63
2024-05-09T03:55:09.804Z,36.63
2024-05-09T03:56:09.889Z,36.65
2024-05-09T03:57:09.819Z,36.67
2024-05-09T03:58:09.814Z,36.61
2024-05-09T03:59:09.862Z,36.66
2024-05-09T04:00:17.627Z,36.65
2024-05-09T04:01:10.874Z,36.65
2024-05-09T04:02:09.908Z,36.67
2024-05-09T04:03:12.005Z,36.64
2024-05-09T04:04:09.850Z,36.62
2024-05-09T04:05:09.851Z,36.63
2024-05-09T04:06:09.829Z,36.61
2024-05-09T04:07:09.818Z,36.61
2024-05-09T04:08:10.573Z,36.61
2024-05-09T04:09:09.833Z,36.61
2024-05-09T04:10:17.000Z,36.59
2024-05-09T04:11:10.888Z,36.66
2024-05-09T04:12:10.008Z,36.62
2024-05-09T04:13:09.857Z,36.63
2024-05-09T04:14:09.936Z,36.59
2024-05-09T04:15:12.830Z,36.58
2024-05-09T04:16:09.833Z,36.59
2024-05-09T04:17:09.869Z,36.61
2024-05-09T04:18:10.012Z,36.62
2024-05-09T04:19:09.949Z,36.60
2024-05-09T04:20:12.506Z,36.58
2024-05-09T04:21:10.911Z,36.59
2024-05-09T04:22:09.879Z,36.60
2024-05-09T04:23:09.881Z,36.60
2024-05-09T04:24:09.843Z,36.59
2024-05-09T04:25:09.842Z,36.58
2024-05-09T04:26:09.928Z,36.56
2024-05-09T04:27:09.848Z,36.59
2024-05-09T04:28:09.846Z,36.60
2024-05-09T04:29:09.882Z,36.59
2024-05-09T04:30:18.378Z,36.60
2024-05-09T04:31:10.851Z,36.60
2024-05-09T04:32:18.193Z,36.66
2024-05-09T04:33:18.206Z,36.63
2024-05-09T04:34:18.185Z,36.64
2024-05-09T04:35:18.131Z,36.61
2024-05-09T04:36:18.097Z,36.58
2024-05-09T04:37:18.109Z,36.56
2024-05-09T04:38:18.206Z,36.56
2024-05-09T04:39:18.092Z,36.57
2024-05-09T04:40:27.659Z,36.56
2024-05-09T04:41:19.174Z,36.55
2024-05-09T04:42:18.113Z,36.52
2024-05-09T04:43:18.104Z,36.54
2024-05-09T04:44:18.150Z,36.54
2024-05-09T04:45:18.103Z,36.55
2024-05-09T04:46:18.106Z,36.57
2024-05-09T04:47:18.309Z,36.58
2024-05-09T04:48:18.285Z,36.57
2024-05-09T04:49:18.348Z,36.54
2024-05-09T04:50:29.004Z,36.49
2024-05-09T04:51:19.126Z,36.54
2024-05-09T04:52:18.130Z,36.55
2024-05-09T04:53:18.328Z,36.55
2024-05-09T04:54:26.227Z,36.53
2024-05-09T04:55:19.161Z,36.56
2024-05-09T04:56:18.151Z,36.52
2024-05-09T04:57:18.125Z,36.57
2024-05-09T04:58:18.129Z,36.58
2024-05-09T04:59:18.150Z,36.59
2024-05-09T05:00:25.783Z,36.53
2024-05-09T05:01:19.155Z,36.52
2024-05-09T05:02:18.232Z,36.51
2024-05-09T05:03:18.475Z,36.52
2024-05-09T05:04:18.434Z,36.50
2024-05-09T05:05:18.221Z,36.50
2024-05-09T05:06:18.141Z,36.48
2024-05-09T05:07:18.143Z,36.48
2024-05-09T05:08:19.145Z,36.48
2024-05-09T05:09:18.142Z,36.44
2024-05-09T05:10:25.288Z,36.50
2024-05-09T05:11:19.325Z,36.50
2024-05-09T05:12:18.292Z,36.50
2024-05-09T05:13:19.202Z,36.50
2024-05-09T05:14:18.210Z,36.48
2024-05-09T05:15:18.162Z,36.50
2024-05-09T05:16:18.159Z,36.44
2024-05-09T05:17:18.230Z,36.49
2024-05-09T05:18:18.946Z,36.49
2024-05-09T05:19:18.283Z,36.52
2024-05-09T05:20:27.379Z,36.50
2024-05-09T05:21:19.486Z,36.50
2024-05-09T05:22:18.177Z,36.51
2024-05-09T05:23:18.305Z,36.46
2024-05-09T05:24:18.179Z,36.44
2024-05-09T05:25:18.175Z,36.46
2024-05-09T05:26:18.236Z,36.46
2024-05-09T05:27:18.206Z,36.45
2024-05-09T05:28:18.193Z,36.44
2024-05-09T05:29:20.832Z,36.43
2024-05-09T05:30:25.030Z,36.41
2024-05-09T05:31:19.255Z,36.44
2024-05-09T05:32:18.416Z,36.42
2024-05-09T05:33:18.892Z,36.41
2024-05-09T05:34:18.189Z,36.44
2024-05-09T05:35:18.220Z,36.41
2024-05-09T05:36:18.196Z,36.43
2024-05-09T05:37:18.195Z,36.42
2024-05-09T05:38:18.297Z,36.39
2024-05-09T05:39:18.204Z,36.40
2024-05-09T05:40:27.990Z,36.38
2024-05-09T05:41:19.244Z,36.40
2024-05-09T05:42:18.209Z,36.41
2024-05-09T05:43:18.372Z,36.37
2024-05-09T05:44:18.255Z,36.38
2024-05-09T05:45:18.221Z,36.41
2024-05-09T05:46:18.208Z,36.41
2024-05-09T05:47:18.302Z,36.37
2024-05-09T05:48:18.909Z,36.40
2024-05-09T05:49:18.397Z,36.37
2024-05-09T05:50:27.294Z,36.40
2024-05-09T05:51:19.250Z,36.36
2024-05-09T05:52:18.237Z,36.37
2024-05-09T05:53:18.313Z,36.34
2024-05-09T05:54:18.240Z,36.37
2024-05-09T05:55:18.224Z,36.34
2024-05-09T05:56:18.255Z,36.35
2024-05-09T05:57:18.252Z,36.35
2024-05-09T05:58:18.230Z,36.35
2024-05-09T05:59:18.360Z,36.33
2024-05-09T06:00:29.121Z,36.33
2024-05-09T06:01:19.286Z,36.31
2024-05-09T06:02:18.366Z,36.32
2024-05-09T06:03:18.286Z,36.32
2024-05-09T06:04:18.290Z,36.32
2024-05-09T06:05:18.391Z,36.28
2024-05-09T06:06:18.269Z,36.29
2024-05-09T06:07:18.260Z,36.28
2024-05-09T06:08:18.300Z,36.29
2024-05-09T06:09:18.300Z,36.27
2024-05-09T06:10:25.182Z,36.27
2024-05-09T06:11:19.420Z,36.22
2024-05-09T06:12:18.355Z,36.28
2024-05-09T06:13:18.253Z,36.26
2024-05-09T06:14:18.379Z,36.22
2024-05-09T06:15:18.277Z,36.23
2024-05-09T06:16:18.281Z,36.20
2024-05-09T06:17:18.398Z,36.20
2024-05-09T06:18:18.615Z,36.18
2024-05-09T06:19:18.357Z,36.17
2024-05-09T06:20:23.990Z,36.16
2024-05-09T06:21:19.488Z,36.17
2024-05-09T06:22:18.269Z,36.16
2024-05-09T06:23:18.427Z,36.15
2024-05-09T06:24:18.275Z,36.17
2024-05-09T06:25:18.275Z,36.14
2024-05-09T06:26:18.407Z,36.12
2024-05-09T06:27:18.292Z,36.10
2024-05-09T06:28:18.282Z,36.15
2024-05-09T06:29:18.352Z,36.12
2024-05-09T06:31:18.282Z,36.12
2024-05-09T06:32:18.344Z,36.11
2024-05-09T06:33:18.596Z,36.10
2024-05-09T06:34:18.481Z,36.06
2024-05-09T06:35:18.400Z,36.08
2024-05-09T06:36:18.293Z,36.08
2024-05-09T06:37:18.325Z,36.01
2024-05-09T06:38:18.376Z,36.05
2024-05-09T06:39:18.296Z,36.02
2024-05-09T06:40:25.436Z,36.05
2024-05-09T06:41:19.391Z,36.04
2024-05-09T06:42:18.312Z,36.03
2024-05-09T06:43:19.611Z,35.98
2024-05-09T06:44:18.373Z,36.02
2024-05-09T06:45:18.304Z,35.96
2024-05-09T06:46:18.307Z,35.87
2024-05-09T06:47:18.445Z,35.88
2024-05-09T06:48:18.660Z,35.85
2024-05-09T06:49:18.529Z,35.83
2024-05-09T06:50:23.905Z,35.86
2024-05-09T06:51:19.353Z,35.86
2024-05-09T06:52:18.313Z,35.83
2024-05-09T06:53:18.377Z,35.75
2024-05-09T06:54:18.352Z,35.69
2024-05-09T06:55:18.321Z,35.70
2024-05-09T06:56:18.394Z,35.70
2024-05-09T06:57:18.354Z,35.70
2024-05-09T06:58:18.337Z,35.72
2024-05-09T06:59:18.475Z,35.66
2024-05-09T07:00:26.904Z,35.56
2024-05-09T07:01:19.388Z,35.52
2024-05-09T07:02:18.448Z,35.46
2024-05-09T07:03:19.470Z,35.48
2024-05-09T07:04:18.446Z,35.50
2024-05-09T07:05:18.490Z,35.55
2024-05-09T07:06:18.416Z,35.56
2024-05-09T07:07:18.360Z,35.55
2024-05-09T07:08:18.712Z,35.56
2024-05-09T07:09:18.364Z,35.54
2024-05-09T07:10:25.713Z,35.55
2024-05-09T07:11:19.418Z,35.54
2024-05-09T07:12:18.547Z,35.53
2024-05-09T07:13:18.358Z,35.54
2024-05-09T07:14:18.538Z,35.55
2024-05-09T07:15:18.370Z,35.53
2024-05-09T07:16:18.364Z,35.52
2024-05-09T07:17:18.454Z,35.48
2024-05-09T07:18:19.311Z,35.48
2024-05-09T07:19:18.563Z,35.48
2024-05-09T07:20:23.736Z,35.46
2024-05-09T07:21:19.562Z,35.43
2024-05-09T07:22:18.370Z,35.35
2024-05-09T07:23:18.653Z,35.27
2024-05-09T07:24:18.443Z,35.21
2024-05-09T07:25:18.381Z,35.17
2024-05-09T07:26:18.497Z,35.10
2024-05-09T07:27:18.365Z,35.07
2024-05-09T07:28:18.526Z,35.03
2024-05-09T07:29:18.450Z,35.02
2024-05-09T07:30:23.812Z,34.97
2024-05-09T07:31:19.460Z,34.97
2024-05-09T07:32:18.590Z,34.93
2024-05-09T07:33:19.367Z,34.90
2024-05-09T07:34:18.614Z,34.86
2024-05-09T07:35:18.488Z,34.94
2024-05-09T07:36:18.458Z,34.98
2024-05-09T07:37:18.446Z,35.03
2024-05-09T07:38:18.542Z,34.95
2024-05-09T07:39:18.645Z,34.95
2024-05-09T07:40:28.446Z,34.92
2024-05-09T07:41:19.507Z,34.97
2024-05-09T07:42:18.463Z,34.94
2024-05-09T07:43:18.478Z,34.91
2024-05-09T07:44:18.551Z,34.98
2024-05-09T07:47:14.416Z,35.03
2024-05-09T07:48:29.190Z,35.00
2024-05-09T07:51:31.643Z,34.98
2024-05-09T07:53:38.220Z,35.05
2024-05-09T07:54:19.724Z,35.10
2024-05-09T07:55:18.751Z,35.05
2024-05-09T07:56:20.118Z,35.03
2024-05-09T07:57:18.683Z,35.03
2024-05-09T07:58:18.596Z,35.02
2024-05-09T07:59:18.510Z,35.04
2024-05-09T08:00:23.811Z,35.05
2024-05-09T08:01:20.193Z,35.07
2024-05-09T08:02:18.656Z,35.08
2024-05-09T08:03:18.716Z,35.06
2024-05-09T08:04:18.626Z,35.02
2024-05-09T08:05:18.765Z,34.98
2024-05-09T08:06:18.532Z,34.97
2024-05-09T08:07:18.536Z,35.00
2024-05-09T08:08:18.572Z,35.02
2024-05-09T08:09:21.239Z,35.01
2024-05-09T08:10:22.249Z,34.97
2024-05-09T08:11:19.774Z,34.89
2024-05-09T08:12:18.646Z,34.84
2024-05-09T08:13:18.793Z,34.90
2024-05-09T08:14:18.655Z,34.86
2024-05-09T08:15:18.660Z,34.82
2024-05-09T08:16:18.921Z,34.85
2024-05-09T08:17:18.724Z,34.88
2024-05-09T08:18:18.707Z,34.87
2024-05-09T08:19:18.746Z,34.82
2024-05-09T08:20:26.899Z,34.86
2024-05-09T08:21:19.790Z,34.90
2024-05-09T08:22:18.696Z,34.86
2024-05-09T08:23:18.693Z,34.79
2024-05-09T08:24:18.672Z,34.78
2024-05-09T08:25:18.711Z,34.78
2024-05-09T08:26:18.682Z,34.80
2024-05-09T08:27:18.681Z,34.83
2024-05-09T08:28:18.822Z,34.86
2024-05-09T08:29:18.706Z,34.91
2024-05-09T08:30:24.948Z,34.93
2024-05-09T08:31:19.774Z,34.94
2024-05-09T08:32:18.702Z,34.94
2024-05-09T08:33:18.782Z,34.91
2024-05-09T08:34:18.800Z,34.90
2024-05-09T08:35:18.683Z,34.92
2024-05-09T08:36:18.705Z,34.94
2024-05-09T08:37:22.524Z,34.95
2024-05-09T08:38:19.713Z,34.98
2024-05-09T08:39:18.721Z,34.98
2024-05-09T08:40:27.279Z,35.00
2024-05-09T08:41:19.705Z,35.02
2024-05-09T08:42:18.695Z,35.01
2024-05-09T08:43:18.973Z,35.02
2024-05-09T08:44:18.706Z,35.04
2024-05-09T08:45:18.704Z,35.02
2024-05-09T08:46:19.086Z,35.05
2024-05-09T08:47:18.770Z,35.06
2024-05-09T08:48:19.060Z,35.05
2024-05-09T08:49:18.864Z,35.04
2024-05-09T08:50:28.920Z,35.06
2024-05-09T08:51:19.804Z,35.03
2024-05-09T08:52:18.814Z,35.03
2024-05-09T08:53:18.757Z,35.00
2024-05-09T08:54:18.771Z,35.01
2024-05-09T08:55:18.772Z,34.99
2024-05-09T08:56:18.757Z,34.99
2024-05-09T08:57:18.774Z,34.99
2024-05-09T08:58:18.840Z,34.98
2024-05-09T08:59:18.782Z,34.98
2024-05-09T09:00:29.249Z,34.99
2024-05-09T09:01:20.052Z,35.00
2024-05-09T09:02:19.221Z,34.97
2024-05-09T09:03:19.529Z,34.96
2024-05-09T09:04:19.113Z,34.92
2024-05-09T09:05:18.969Z,34.89
2024-05-09T09:06:18.787Z,34.88
2024-05-09T09:07:18.869Z,34.86
2024-05-09T09:08:18.787Z,34.86
2024-05-09T09:09:18.798Z,34.85
2024-05-09T09:10:28.962Z,34.88
2024-05-09T09:11:19.856Z,34.94
2024-05-09T09:12:18.820Z,34.91
2024-05-09T09:13:18.882Z,34.90
2024-05-09T09:14:18.813Z,34.86
2024-05-09T09:15:18.811Z,34.87
2024-05-09T09:16:19.082Z,34.90
2024-05-09T09:17:18.851Z,34.90
2024-05-09T09:18:19.297Z,34.92
2024-05-09T09:19:18.940Z,34.97
2024-05-09T09:20:25.975Z,34.97
2024-05-09T09:21:19.838Z,35.02
2024-05-09T09:22:18.906Z,34.99
2024-05-09T09:23:18.849Z,34.96
2024-05-09T09:24:18.829Z,34.93
2024-05-09T09:25:18.847Z,34.87
2024-05-09T09:26:18.848Z,34.84
2024-05-09T09:27:18.837Z,34.81
2024-05-09T09:28:18.862Z,34.78
2024-05-09T09:29:18.835Z,34.81
2024-05-09T09:30:31.661Z,34.80
2024-05-09T09:31:19.022Z,34.80
2024-05-09T09:32:18.939Z,34.78
2024-05-09T09:33:19.093Z,34.77
2024-05-09T09:34:19.041Z,34.76
2024-05-09T09:35:18.873Z,34.82
2024-05-09T09:36:18.851Z,34.85
2024-05-09T09:37:18.895Z,34.88
2024-05-09T09:38:18.876Z,34.88
2024-05-09T09:39:18.888Z,34.94
2024-05-09T09:40:22.294Z,34.94
2024-05-09T09:41:19.895Z,34.96
2024-05-09T09:42:18.919Z,34.98
2024-05-09T09:43:19.092Z,34.96
2024-05-09T09:44:18.867Z,34.99
2024-05-09T09:45:18.899Z,34.99
2024-05-09T09:46:19.006Z,35.00
2024-05-09T09:47:19.148Z,35.00
2024-05-09T09:48:18.972Z,34.97
2024-05-09T09:49:19.099Z,34.99
2024-05-09T09:50:27.280Z,34.99
2024-05-09T09:51:19.917Z,34.97
2024-05-09T09:52:19.004Z,34.95
2024-05-09T09:53:18.914Z,34.96
2024-05-09T09:54:18.916Z,35.01
2024-05-09T09:55:19.035Z,35.00
2024-05-09T09:56:18.911Z,35.01
2024-05-09T09:57:18.914Z,35.01
2024-05-09T09:58:18.972Z,35.01
2024-05-09T09:59:18.908Z,35.00
2024-05-09T10:00:24.547Z,35.00
2024-05-09T10:01:20.246Z,35.09
2024-05-09T10:02:19.343Z,35.20
2024-05-09T10:03:19.247Z,35.25
2024-05-09T10:04:19.137Z,35.32
2024-05-09T10:05:19.140Z,35.35
2024-05-09T10:06:18.947Z,35.41
2024-05-09T10:07:18.956Z,35.42
2024-05-09T10:08:18.923Z,35.45
2024-05-09T10:09:18.916Z,35.44
2024-05-09T10:10:26.913Z,35.47
2024-05-09T10:11:20.126Z,35.47
2024-05-09T10:12:18.958Z,35.50
2024-05-09T10:13:19.115Z,35.50
2024-05-09T10:14:18.942Z,35.53
2024-05-09T10:15:18.936Z,35.52
2024-05-09T10:16:19.174Z,35.51
2024-05-09T10:17:19.016Z,35.55
2024-05-09T10:18:19.067Z,35.55
2024-05-09T10:19:19.459Z,35.54
2024-05-09T10:20:24.674Z,35.57
2024-05-09T10:21:19.975Z,35.58
2024-05-09T10:22:19.033Z,35.55
2024-05-09T10:23:18.930Z,35.56
2024-05-09T10:24:18.957Z,35.57
2024-05-09T10:25:19.040Z,35.58
2024-05-09T10:26:18.945Z,35.56
2024-05-09T10:27:18.963Z,35.56
2024-05-09T10:28:19.068Z,35.56
2024-05-09T10:29:18.954Z,35.58
2024-05-09T10:30:26.088Z,35.57
2024-05-09T10:31:19.977Z,35.57
2024-05-09T10:32:19.097Z,35.56
2024-05-09T10:33:19.072Z,35.54
2024-05-09T10:34:19.410Z,35.53
2024-05-09T10:35:18.944Z,35.52
2024-05-09T10:36:18.943Z,35.48
2024-05-09T10:37:19.018Z,35.47
2024-05-09T10:38:18.970Z,35.44
2024-05-09T10:39:18.959Z,35.36
2024-05-09T10:40:26.074Z,35.32
2024-05-09T10:41:19.969Z,35.30
2024-05-09T10:42:18.992Z,35.24
2024-05-09T10:43:19.029Z,35.22
2024-05-09T10:44:18.973Z,35.23
2024-05-09T10:45:18.998Z,35.24
2024-05-09T10:46:19.377Z,35.24
2024-05-09T10:47:19.029Z,35.25
2024-05-09T10:48:19.083Z,35.27
2024-05-09T10:49:19.070Z,35.31
2024-05-09T10:50:25.680Z,35.29
2024-05-09T10:51:20.030Z,35.28
2024-05-09T10:52:19.109Z,35.24
2024-05-09T10:53:18.997Z,35.26
2024-05-09T10:54:18.990Z,35.23
2024-05-09T10:55:19.125Z,35.23
2024-05-09T10:56:19.005Z,35.27
2024-05-09T10:57:19.061Z,35.23
2024-05-09T10:58:19.114Z,35.21
2024-05-09T10:59:19.002Z,35.24
2024-05-09T11:00:27.542Z,35.27
2024-05-09T11:01:20.069Z,35.28
2024-05-09T11:02:19.099Z,35.26
2024-05-09T11:03:19.144Z,35.23
2024-05-09T11:04:19.169Z,35.25
2024-05-09T11:05:19.308Z,35.28
2024-05-09T11:06:19.043Z,35.29
2024-05-09T11:07:19.134Z,35.29
2024-05-09T11:08:19.019Z,35.27
2024-05-09T11:09:19.053Z,35.30
2024-05-09T11:10:27.263Z,35.27
2024-05-09T11:11:20.059Z,35.26
2024-05-09T11:12:21.302Z,35.22
2024-05-09T11:13:19.149Z,35.18
2024-05-09T11:14:19.030Z,35.18
2024-05-09T11:15:19.140Z,35.19
2024-05-09T11:16:19.276Z,35.18
2024-05-09T11:17:19.168Z,35.18
2024-05-09T11:18:20.946Z,35.18
2024-05-09T11:19:19.175Z,35.18
2024-05-09T11:20:26.768Z,35.19
2024-05-09T11:21:20.076Z,35.20
2024-05-09T11:22:19.124Z,35.19
2024-05-09T11:23:19.045Z,35.15
2024-05-09T11:24:19.070Z,35.11
2024-05-09T11:25:19.207Z,35.13
2024-05-09T11:26:19.053Z,35.14
2024-05-09T11:27:19.073Z,35.16
2024-05-09T11:28:19.195Z,35.12
2024-05-09T11:29:19.676Z,35.10
2024-05-09T11:30:26.953Z,35.12
2024-05-09T11:31:20.163Z,35.11
2024-05-09T11:32:19.078Z,35.11
2024-05-09T11:33:19.648Z,35.13
2024-05-09T11:34:19.153Z,35.10
2024-05-09T11:35:19.059Z,35.11
2024-05-09T11:36:19.086Z,35.12
2024-05-09T11:37:19.300Z,35.09
2024-05-09T11:38:19.111Z,35.09
2024-05-09T11:39:19.074Z,35.10
2024-05-09T11:40:25.298Z,35.06
2024-05-09T11:41:20.092Z,35.08
2024-05-09T11:42:19.082Z,35.09
2024-05-09T11:43:19.366Z,35.06
2024-05-09T11:44:19.090Z,35.08
2024-05-09T11:45:19.125Z,35.08
2024-05-09T11:46:19.274Z,35.06
2024-05-09T11:47:19.135Z,35.02
2024-05-09T11:48:19.172Z,34.98
2024-05-09T11:49:19.155Z,35.01
2024-05-09T11:50:26.636Z,35.01
2024-05-09T11:51:20.148Z,35.03
2024-05-09T11:52:19.182Z,34.99
2024-05-09T11:53:19.106Z,35.00
2024-05-09T11:54:19.107Z,35.04
2024-05-09T11:55:19.309Z,34.99
2024-05-09T11:56:19.107Z,35.01
2024-05-09T11:57:19.123Z,35.02
2024-05-09T11:58:19.494Z,35.01
2024-05-09T11:59:19.100Z,35.04
2024-05-09T12:00:28.974Z,35.00
2024-05-09T12:01:20.867Z,35.04
2024-05-09T12:02:19.363Z,34.98
2024-05-09T12:03:19.347Z,35.02
2024-05-09T12:04:19.361Z,34.98
2024-05-09T12:05:19.495Z,34.98
2024-05-09T12:06:19.134Z,34.95
2024-05-09T12:07:19.252Z,34.94
2024-05-09T12:08:19.164Z,34.94
2024-05-09T12:09:19.140Z,34.97
2024-05-09T12:10:22.467Z,34.99
2024-05-09T12:11:20.188Z,34.98
2024-05-09T12:12:19.133Z,35.00
2024-05-09T12:13:19.306Z,35.04
2024-05-09T12:14:19.125Z,35.06
2024-05-09T12:15:19.171Z,35.05
2024-05-09T12:16:19.272Z,35.00
2024-05-09T12:17:19.216Z,34.98
2024-05-09T12:18:19.176Z,34.99
2024-05-09T12:19:19.316Z,34.99
2024-05-09T12:20:28.287Z,34.98
2024-05-09T12:21:19.147Z,35.00
2024-05-09T12:22:19.281Z,35.01
2024-05-09T12:23:19.146Z,34.98
2024-05-09T12:24:19.359Z,34.96
2024-05-09T12:25:19.307Z,34.96
2024-05-09T12:26:19.149Z,34.93
2024-05-09T12:27:19.194Z,34.93
2024-05-09T12:28:19.250Z,34.91
2024-05-09T12:29:19.153Z,34.92
2024-05-09T12:30:32.106Z,34.90
2024-05-09T12:31:20.201Z,34.89
2024-05-09T12:32:19.256Z,34.91
2024-05-09T12:33:19.344Z,34.93
2024-05-09T12:34:19.216Z,34.91
2024-05-09T12:35:19.169Z,34.94
2024-05-09T12:36:19.171Z,34.91
2024-05-09T12:37:19.248Z,34.93
2024-05-09T12:38:19.167Z,34.90
2024-05-09T12:39:19.221Z,34.90
2024-05-09T12:40:30.611Z,34.86
2024-05-09T12:41:20.199Z,34.89
2024-05-09T12:42:26.782Z,34.89
2024-05-09T12:43:20.404Z,34.90
2024-05-09T12:44:19.195Z,34.90
2024-05-09T12:45:19.219Z,34.89
2024-05-09T12:46:19.339Z,34.88
2024-05-09T12:47:19.289Z,34.90
2024-05-09T12:48:19.340Z,34.91
2024-05-09T12:49:20.108Z,34.88
2024-05-09T12:50:28.884Z,34.90
2024-05-09T12:51:20.188Z,34.92
2024-05-09T12:52:19.260Z,34.92
2024-05-09T12:53:19.239Z,34.91
2024-05-09T12:54:19.203Z,34.90
2024-05-09T12:55:19.232Z,34.89
2024-05-09T12:56:19.208Z,34.89
2024-05-09T12:57:19.206Z,34.89
2024-05-09T12:58:19.464Z,34.91